• Join FlightAware (Why Join?)
  • Login
  • US Flag 
Trick or treat! (Boo!!) 
09:52PM EDT


 

Airport Tracker/Info


-or-


 

Live Flight TrackerFlight Track Log ✈ N56LW ✈ 13-May-2014 ✈ KLEE - KDTS

Flight Track Log - Related Links

Times and Time Zones

All times are in EDT time to prevent confusion due to time zone crossing. See the N56LW flight status page for this flight to view local times or setup timezone preferences in your user account.

Time Position Orientation Groundspeed Altitude Reporting Facility
EDT Latitude Longitude Course Direction KTS MPH feet Rate Location/Type
08:45AM 28.8000 -81.7667 307° West 187 215 1,800  Level Orlando TRACON
08:45AM 28.8333 -81.7500 24° Northeast 221 254 2,100 600 Climbing Orlando TRACON
08:47AM 28.9233 -81.7419 North 267 307 3,100 960 Climbing Jacksonville Center
08:48AM 28.9967 -81.7886 331° Northwest 264 304 4,800 1,500 Climbing Jacksonville Center
08:48AM 29.0239 -81.8003 339° North 271 312 5,200 3,000 Climbing Jacksonville Center
08:49AM 29.0575 -81.8356 317° Northwest 285 328 7,600 3,300 Climbing Jacksonville Center
08:49AM 29.0683 -81.8686 291° West 296 341 8,500 2,400 Climbing Jacksonville Center
08:50AM 29.0814 -82.2304 307° West  Level FlightAware Approximate
08:50AM 29.0875 -81.9111 297° West 291 335 9,800  Level Jacksonville Center
08:50AM 29.1067 -81.9561 296° West 307 353 9,800 120 Level Jacksonville Center
08:51AM 29.1447 -82.0392 298° West 337 388 10,000 840 Climbing Jacksonville Center
08:52AM 29.1869 -82.1292 298° West 337 388 11,500 1,440 Climbing Jacksonville Center
08:53AM 29.2272 -82.2217 297° West 331 381 12,900 1,860 Climbing Jacksonville Center
08:54AM 29.2694 -82.3117 298° West 325 374 15,300 2,400 Climbing Jacksonville Center
08:55AM 29.3094 -82.3997 298° West 319 367 17,700 1,320 Climbing Jacksonville Center
08:56AM 29.3514 -82.4922 298° West 319 367 18,000 900 Climbing Jacksonville Center
08:57AM 29.3936 -82.5875 297° West 324 373 19,600 1,680 Climbing Jacksonville Center
08:58AM 29.4356 -82.6828 297° West 324 373 21,400 1,560 Climbing Jacksonville Center
08:59AM 29.4794 -82.7781 298° West 329 379 22,800 1,200 Climbing Jacksonville Center
09:00AM 29.5192 -82.8686 297° West 346 398 23,900 600 Climbing Jacksonville Center
09:01AM 29.5650 -82.9736 297° West 351 404 24,000  Climbing Jacksonville Center
09:02AM 29.6128 -83.0836 297° West 364 419 24,000  Level Jacksonville Center
09:03AM 29.6481 -83.1914 291° West 369 425 24,100 660 Climbing Jacksonville Center
09:04AM 29.6814 -83.2894 291° West 369 425 25,400 1,200 Climbing Jacksonville Center
09:05AM 29.7228 -83.4019 293° West 364 419 26,500 720 Climbing Jacksonville Center
09:06AM 29.7597 -83.5097 292° West 359 413 26,900 240 Climbing Jacksonville Center
09:07AM 29.8008 -83.6178 294° West 359 413 27,000  Climbing Jacksonville Center
09:08AM 29.8378 -83.7331 290° West 375 432 27,000  Level Jacksonville Center
09:09AM 29.8767 -83.8436 292° West 375 432 27,000  Level Jacksonville Center
09:10AM 29.9175 -83.9567 293° West 375 432 27,000  Level Jacksonville Center
09:11AM 29.9542 -84.0697 291° West 375 432 27,000  Level Jacksonville Center
09:12AM 29.9969 -84.1925 292° West 375 432 27,000  Level Jacksonville Center
09:13AM 30.0353 -84.3058 291° West 375 432 27,000  Level Jacksonville Center
09:14AM 30.0758 -84.4167 293° West 375 432 27,000  Level Jacksonville Center
09:15AM 30.1142 -84.5303 291° West 375 432 27,000  Level Jacksonville Center
09:16AM 30.1564 -84.6439 293° West 375 432 27,000 -540 Level Jacksonville Center
09:17AM 30.1903 -84.7597 289° West 380 437 26,000 -1,140 Descending Jacksonville Center
09:18AM 30.2322 -84.8761 293° West 380 437 24,800 -1,200 Descending Jacksonville Center
09:19AM 30.2597 -84.9919 285° West 385 443 23,700 -1,200 Descending Jacksonville Center
09:20AM 30.2597 -85.1075 270° West 369 425 22,400 -1,320 Descending Jacksonville Center
09:21AM 30.2619 -85.2228 271° West 369 425 21,100 -1,440 Descending Jacksonville Center
09:22AM 30.2642 -85.3311 271° West 352 405 19,600 -1,740 Descending Jacksonville Center
09:23AM 30.2661 -85.4369 271° West 346 398 17,700 -1,920 Descending Jacksonville Center
09:24AM 30.2661 -85.5428 270° West 340 391 15,800 -1,980 Descending Jacksonville Center
09:25AM 30.2683 -85.6414 272° West 325 374 13,800 -2,100 Descending Jacksonville Center
09:26AM 30.2681 -85.7450 270° West 325 374 11,700 -2,100 Descending Jacksonville Center
09:28AM 30.2868 -85.8456 282° West  Level FlightAware Approximate
09:35AM 30.4000 -86.4667 282° West  Level FlightAware Approximate
09:36AM 30.4000 -86.4715 271° West  Level Estimated
09:37AM 30.4000 -86.4715 North  Level Estimated
09:38AM 30.4000 -86.4715 North  Level Estimated
09:39AM 30.4000 -86.4715 North  Level Estimated
09:40AM 30.4000 -86.4715 North  Level Estimated
09:41AM 30.4000 -86.4715 North  Level Estimated
09:42AM 30.4000 -86.4715 North  Level Estimated